createdAt,value
2022-09-13T00:01:34.687Z,4.80
2022-09-13T00:06:37.513Z,3.60
2022-09-13T00:11:40.305Z,1.95
2022-09-13T00:16:44.293Z,3.22
2022-09-13T00:21:47.115Z,3.92
2022-09-13T00:26:49.708Z,5.88
2022-09-13T00:31:53.816Z,3.53
2022-09-13T00:36:56.536Z,1.20
2022-09-13T00:41:59.442Z,7.97
2022-09-13T00:47:03.541Z,2.70
2022-09-13T00:52:08.881Z,2.05
2022-09-13T00:57:12.705Z,3.60
2022-09-13T01:02:17.656Z,3.22
2022-09-13T01:07:21.368Z,4.22
2022-09-13T01:12:27.695Z,3.88
2022-09-13T01:17:32.249Z,3.40
2022-09-13T01:22:58.574Z,2.83
2022-09-13T01:28:11.696Z,4.13
2022-09-13T01:33:29.424Z,3.50
2022-09-13T01:38:41.507Z,4.28
2022-09-13T01:43:51.087Z,5.20
2022-09-13T01:48:57.125Z,3.60
2022-09-13T01:54:03.720Z,4.53
2022-09-13T01:59:11.593Z,3.10
2022-09-13T02:04:19.478Z,3.70
2022-09-13T02:09:26.610Z,6.90
2022-09-13T02:14:33.227Z,4.03
2022-09-13T02:19:39.786Z,4.28
2022-09-13T02:24:43.478Z,5.28
2022-09-13T02:29:53.136Z,3.58
2022-09-13T02:34:59.329Z,4.57
2022-09-13T02:40:03.909Z,5.90
2022-09-13T02:45:07.234Z,5.93
2022-09-13T02:50:21.348Z,6.07
2022-09-13T03:00:28.240Z,6.18
2022-09-13T03:05:32.813Z,4.82
2022-09-13T03:10:40.029Z,5.70
2022-09-13T03:15:51.001Z,6.63
2022-09-13T03:21:02.383Z,7.65
2022-09-13T03:26:19.884Z,6.10
2022-09-13T03:31:27.614Z,5.47
2022-09-13T03:36:37.706Z,5.45
2022-09-13T03:41:43.463Z,5.47
2022-09-13T03:46:48.245Z,3.88
2022-09-13T03:51:53.818Z,7.38
2022-09-13T03:57:13.698Z,7.05
2022-09-13T04:02:17.571Z,5.47
2022-09-13T04:07:24.816Z,5.57
2022-09-13T04:12:28.642Z,5.88
2022-09-13T04:17:31.608Z,6.00
2022-09-13T04:22:37.684Z,3.90
2022-09-13T04:27:40.348Z,4.50
2022-09-13T04:32:43.941Z,5.22
2022-09-13T04:37:48.079Z,3.72
2022-09-13T04:42:50.840Z,4.45
2022-09-13T04:47:53.919Z,3.92
2022-09-13T04:52:58.213Z,5.43
2022-09-13T04:58:00.854Z,4.20
2022-09-13T05:03:03.657Z,3.58
2022-09-13T05:08:11.973Z,4.82
2022-09-13T05:13:14.720Z,4.80
2022-09-13T05:18:17.356Z,2.95
2022-09-13T05:23:21.395Z,5.40
2022-09-13T05:28:24.425Z,2.70
2022-09-13T05:33:27.578Z,6.90
2022-09-13T05:38:31.891Z,4.67
2022-09-13T05:43:36.460Z,3.13
2022-09-13T05:48:39.528Z,5.43
2022-09-13T05:53:46.305Z,4.77
2022-09-13T05:58:50.737Z,4.43
2022-09-13T06:03:55.318Z,4.97
2022-09-13T06:08:59.481Z,3.17
2022-09-13T06:14:02.258Z,6.07
2022-09-13T06:19:05.109Z,5.20
2022-09-13T06:24:09.328Z,3.65
2022-09-13T06:29:12.402Z,6.65
2022-09-13T06:34:19.521Z,4.43
2022-09-13T06:39:26.806Z,2.72
2022-09-13T06:44:29.465Z,5.25
2022-09-13T06:49:32.525Z,2.57
2022-09-13T06:54:36.612Z,6.00
2022-09-13T06:59:39.507Z,5.40
2022-09-13T07:04:42.169Z,3.35
2022-09-13T07:09:46.337Z,3.80
2022-09-13T07:14:49.412Z,4.97
2022-09-13T07:19:52.451Z,3.63
2022-09-13T07:24:57.200Z,2.40
2022-09-13T07:29:59.776Z,4.30
2022-09-13T07:35:02.957Z,3.08
2022-09-13T07:40:08.221Z,3.42
2022-09-13T07:45:12.605Z,5.95
2022-09-13T07:50:18.549Z,2.97
2022-09-13T07:55:22.682Z,5.72
2022-09-13T08:00:26.036Z,3.33
2022-09-13T08:05:28.699Z,4.50
2022-09-13T08:10:32.821Z,1.63
2022-09-13T08:15:35.566Z,2.10
2022-09-13T08:20:38.566Z,2.88
2022-09-13T08:25:42.796Z,3.28
2022-09-13T08:30:45.698Z,2.20
2022-09-13T08:35:52.665Z,1.48
2022-09-13T08:40:57.781Z,4.13
2022-09-13T08:46:04.113Z,3.33
2022-09-13T08:51:08.961Z,2.75
2022-09-13T08:56:14.220Z,1.45
2022-09-13T09:01:22.111Z,4.70
2022-09-13T09:06:25.505Z,6.00
2022-09-13T09:11:33.641Z,2.90
2022-09-13T09:16:38.304Z,4.45
2022-09-13T09:21:41.719Z,2.47
2022-09-13T09:26:46.093Z,3.35
2022-09-13T09:31:56.906Z,2.72
2022-09-13T09:37:05.001Z,2.47
2022-09-13T09:42:12.314Z,2.20
2022-09-13T09:47:16.873Z,3.47
2022-09-13T09:52:28.324Z,2.00
2022-09-13T09:57:48.965Z,2.30
2022-09-13T10:02:55.227Z,5.13
2022-09-13T10:07:59.272Z,3.13
2022-09-13T10:13:02.202Z,2.22
2022-09-13T10:18:40.090Z,3.10
2022-09-13T10:23:40.159Z,2.38
2022-09-13T10:28:45.212Z,3.92
2022-09-13T10:33:54.161Z,3.55
2022-09-13T10:38:58.998Z,3.67
2022-09-13T10:44:09.113Z,2.53
2022-09-13T10:49:27.894Z,3.38
2022-09-13T10:54:32.439Z,3.13
2022-09-13T10:59:35.457Z,3.00
2022-09-13T11:04:46.078Z,2.40
2022-09-13T11:09:53.522Z,2.13
2022-09-13T11:15:02.983Z,1.63
2022-09-13T11:20:11.063Z,2.63
2022-09-13T11:25:27.252Z,2.47
2022-09-13T11:30:33.243Z,3.83
2022-09-13T11:35:46.041Z,1.95
2022-09-13T11:40:56.592Z,1.30
2022-09-13T11:46:04.003Z,1.20
2022-09-13T11:51:12.207Z,1.25
2022-09-13T11:56:18.450Z,1.42
2022-09-13T12:01:23.733Z,1.23
2022-09-13T12:06:28.036Z,1.95
2022-09-13T12:11:33.897Z,1.80
2022-09-13T12:16:39.756Z,2.45
2022-09-13T12:21:44.393Z,3.20
2022-09-13T12:26:50.861Z,3.05
2022-09-13T12:31:56.024Z,2.00
2022-09-13T12:37:10.110Z,2.67
2022-09-13T12:42:31.423Z,2.72
2022-09-13T12:47:42.585Z,2.28
2022-09-13T12:52:48.937Z,3.22
2022-09-13T12:57:58.858Z,3.30
2022-09-13T13:03:12.026Z,2.05
2022-09-13T13:08:27.684Z,2.75
2022-09-13T13:13:34.998Z,3.17
2022-09-13T13:18:46.092Z,3.83
2022-09-13T13:23:48.928Z,1.65
2022-09-13T13:29:16.645Z,3.08
2022-09-13T13:34:46.313Z,1.73
2022-09-13T13:40:11.670Z,1.58
2022-09-13T13:45:19.527Z,1.85
2022-09-13T13:50:27.219Z,1.50
2022-09-13T13:55:39.864Z,2.15
2022-09-13T14:00:48.011Z,1.77
2022-09-13T14:05:55.642Z,1.15
2022-09-13T14:11:03.417Z,3.10
2022-09-13T14:16:11.169Z,2.22
2022-09-13T14:21:21.361Z,1.63
2022-09-13T14:26:25.422Z,1.25
2022-09-13T14:31:28.253Z,1.42
2022-09-13T14:36:36.177Z,2.15
2022-09-13T14:41:40.601Z,3.15
2022-09-13T14:46:49.531Z,2.45
2022-09-13T14:51:56.521Z,2.88
2022-09-13T14:57:02.207Z,1.50
2022-09-13T15:02:08.337Z,2.55
2022-09-13T15:07:22.226Z,1.10
2022-09-13T15:12:28.167Z,2.65
2022-09-13T15:17:30.897Z,1.70
2022-09-13T15:22:34.815Z,2.22
2022-09-13T15:27:46.031Z,2.47
2022-09-13T15:32:48.807Z,8.95
2022-09-13T15:38:00.182Z,3.67
2022-09-13T15:43:04.264Z,1.23
2022-09-13T15:48:07.077Z,4.55
2022-09-13T15:53:12.766Z,2.75
2022-09-13T15:58:17.224Z,2.42
2022-09-13T16:03:19.845Z,2.00
2022-09-13T16:08:22.648Z,1.58
2022-09-13T16:13:26.933Z,3.22
2022-09-13T16:18:30.047Z,3.15
2022-09-13T16:23:32.801Z,1.55
2022-09-13T16:28:37.043Z,3.80
2022-09-13T16:33:40.122Z,3.90
2022-09-13T16:38:43.081Z,3.53
2022-09-13T16:43:47.651Z,3.25
2022-09-13T16:48:54.762Z,3.03
2022-09-13T16:53:57.962Z,4.43
2022-09-13T16:59:03.154Z,3.92
2022-09-13T17:04:06.519Z,2.33
2022-09-13T17:09:09.284Z,2.95
2022-09-13T17:14:15.022Z,6.45
2022-09-13T17:19:18.814Z,5.20
2022-09-13T17:24:21.771Z,3.00
2022-09-13T17:34:31.025Z,5.15
2022-09-13T17:39:34.189Z,4.40
2022-09-13T17:44:36.877Z,6.30
2022-09-13T17:49:47.344Z,7.47
2022-09-13T17:54:50.775Z,6.05
2022-09-13T17:59:54.844Z,7.05
2022-09-13T18:05:04.661Z,3.15
2022-09-13T18:10:20.432Z,4.95
2022-09-13T18:15:28.656Z,5.72
2022-09-13T18:25:36.422Z,4.72
2022-09-13T18:30:39.445Z,6.18
2022-09-13T18:35:42.186Z,6.43
2022-09-13T18:40:46.319Z,6.93
2022-09-13T18:45:54.441Z,6.35
2022-09-13T18:50:57.556Z,6.38
2022-09-13T19:01:06.121Z,5.80
2022-09-13T19:06:10.065Z,8.13
2022-09-13T19:11:45.441Z,5.18
2022-09-13T19:16:48.017Z,5.55
2022-09-13T19:21:50.689Z,5.32
2022-09-13T19:26:55.978Z,4.20
2022-09-13T19:32:00.170Z,3.97
2022-09-13T19:37:05.961Z,4.50
2022-09-13T19:42:08.820Z,7.43
2022-09-13T19:52:35.843Z,2.95
2022-09-13T19:57:40.844Z,3.08
2022-09-13T20:02:48.713Z,6.75
2022-09-13T20:07:51.550Z,6.00
2022-09-13T20:12:55.297Z,4.72
2022-09-13T20:17:59.561Z,6.18
2022-09-13T20:23:02.263Z,4.50
2022-09-13T20:28:04.906Z,8.13
2022-09-13T20:33:10.098Z,4.85
2022-09-13T20:38:12.897Z,4.05
2022-09-13T20:43:15.749Z,5.65
2022-09-13T20:48:19.895Z,6.90
2022-09-13T20:53:22.619Z,6.88
2022-09-13T20:58:25.617Z,7.43
2022-09-13T21:03:30.241Z,9.65
2022-09-13T21:08:46.905Z,12.70
2022-09-13T21:13:52.517Z,7.82
2022-09-13T21:18:56.585Z,10.23
2022-09-13T21:24:03.705Z,5.22
2022-09-13T21:29:06.438Z,5.43
2022-09-13T21:34:16.707Z,5.97
2022-09-13T21:39:19.648Z,8.70
2022-09-13T21:44:22.372Z,6.15
2022-09-13T21:49:27.949Z,5.35
2022-09-13T21:54:30.930Z,4.82
2022-09-13T21:59:33.598Z,8.18
2022-09-13T22:04:37.603Z,6.30
2022-09-13T22:09:40.305Z,5.82
2022-09-13T22:14:43.803Z,12.80
2022-09-13T22:19:47.754Z,12.20
2022-09-13T22:24:53.410Z,9.15
2022-09-13T22:29:56.090Z,9.27
2022-09-13T22:35:00.121Z,8.02
2022-09-13T22:40:03.211Z,11.00
2022-09-13T22:45:08.138Z,8.70
2022-09-13T22:50:12.192Z,8.13
2022-09-13T22:55:21.005Z,8.13
2022-09-13T23:00:23.656Z,10.67
2022-09-13T23:05:28.321Z,10.20
2022-09-13T23:10:31.258Z,8.93
2022-09-13T23:15:33.903Z,9.60
2022-09-13T23:20:38.187Z,7.30
2022-09-13T23:25:40.813Z,6.65
2022-09-13T23:30:43.492Z,9.63
2022-09-13T23:35:48.157Z,5.30
2022-09-13T23:40:50.889Z,6.22
2022-09-13T23:45:53.895Z,6.05
2022-09-13T23:51:01.665Z,4.70
2022-09-13T23:56:07.967Z,5.75
